createdAt,value
2023-02-21T00:02:34.168Z,101183.63
2023-02-21T00:06:54.966Z,101186.16
2023-02-21T00:11:17.148Z,101179.22
2023-02-21T00:15:37.814Z,101184.00
2023-02-21T00:19:59.156Z,101178.19
2023-02-21T00:24:19.736Z,101183.63
2023-02-21T00:28:41.521Z,101176.50
2023-02-21T00:33:02.412Z,101176.50
2023-02-21T00:37:23.334Z,101183.63
2023-02-21T00:41:43.815Z,101191.25
2023-02-21T00:46:06.388Z,101183.63
2023-02-21T00:50:27.124Z,101186.00
2023-02-21T00:54:49.386Z,101175.47
2023-02-21T00:59:11.277Z,101171.03
2023-02-21T01:03:33.245Z,101164.72
2023-02-21T01:07:53.989Z,101161.19
2023-02-21T01:12:14.733Z,101158.94
2023-02-21T01:16:35.258Z,101160.16
2023-02-21T01:20:56.986Z,101155.53
2023-02-21T01:25:17.476Z,101158.44
2023-02-21T01:29:37.916Z,101157.91
2023-02-21T01:33:59.968Z,101149.25
2023-02-21T01:38:21.988Z,101157.22
2023-02-21T01:42:42.679Z,101158.09
2023-02-21T01:47:03.351Z,101162.69
2023-02-21T01:51:29.602Z,101145.31
2023-02-21T01:55:53.403Z,101147.19
2023-02-21T02:00:16.421Z,101142.78
2023-02-21T02:04:36.966Z,101133.59
2023-02-21T02:08:57.779Z,101140.06
2023-02-21T02:13:32.663Z,101141.75
2023-02-21T02:17:48.510Z,101134.78
2023-02-21T02:22:27.266Z,101125.41
2023-02-21T02:26:59.445Z,101120.31
2023-02-21T02:31:26.004Z,101120.31
2023-02-21T02:35:35.370Z,101125.09
2023-02-21T02:39:44.911Z,101123.41
2023-02-21T02:43:52.650Z,101122.38
2023-02-21T02:48:00.918Z,101119.66
2023-02-21T02:52:10.936Z,101122.38
2023-02-21T02:56:18.652Z,101113.53
2023-02-21T03:00:24.298Z,101115.41
2023-02-21T03:04:47.813Z,101122.06
2023-02-21T03:08:58.275Z,101106.75
2023-02-21T03:13:11.118Z,101105.06
2023-02-21T03:17:19.449Z,101102.50
2023-02-21T03:21:28.051Z,101098.06
2023-02-21T03:25:35.037Z,101092.47
2023-02-21T03:29:41.665Z,101095.56
2023-02-21T03:33:45.862Z,101094.53
2023-02-21T03:37:52.272Z,101095.56
2023-02-21T03:41:59.858Z,101088.41
2023-02-21T03:46:03.286Z,101087.38
2023-02-21T03:50:08.355Z,101094.88
2023-02-21T03:54:15.094Z,101089.78
2023-02-21T03:58:23.641Z,101094.00
2023-02-21T04:02:27.152Z,101099.66
2023-02-21T04:06:31.763Z,101103.03
2023-02-21T04:10:40.678Z,101098.97
2023-02-21T04:14:52.569Z,101095.59
2023-02-21T04:18:57.331Z,101086.75
2023-02-21T04:23:03.461Z,101087.97
2023-02-21T04:27:08.173Z,101080.16
2023-02-21T04:31:18.366Z,101088.50
2023-02-21T04:35:22.093Z,101086.47
2023-02-21T04:39:25.428Z,101092.94
2023-02-21T04:43:28.713Z,101092.63
2023-02-21T04:47:33.308Z,101084.50
2023-02-21T04:51:36.413Z,101086.91
2023-02-21T04:55:39.559Z,101074.31
2023-02-21T04:59:42.883Z,101078.56
2023-02-21T05:03:47.417Z,101084.00
2023-02-21T05:07:50.491Z,101086.06
2023-02-21T05:11:53.568Z,101095.41
2023-02-21T05:15:56.766Z,101092.69
2023-02-21T05:20:01.256Z,101098.47
2023-02-21T05:24:04.694Z,101091.53
2023-02-21T05:28:07.741Z,101097.31
2023-02-21T05:32:10.889Z,101095.41
2023-02-21T05:36:15.462Z,101094.75
2023-02-21T05:40:18.972Z,101088.47
2023-02-21T05:44:22.770Z,101085.91
2023-02-21T05:48:25.884Z,101095.09
2023-02-21T05:52:30.400Z,101107.38
2023-02-21T05:56:38.989Z,101101.25
2023-02-21T06:00:42.184Z,101107.72
2023-02-21T06:04:45.542Z,101105.34
2023-02-21T06:08:51.093Z,101102.44
2023-02-21T06:12:54.398Z,101099.91
2023-02-21T06:16:57.528Z,101107.06
2023-02-21T06:21:00.735Z,101107.75
2023-02-21T06:25:05.972Z,101105.38
2023-02-21T06:29:09.378Z,101108.78
2023-02-21T06:33:12.527Z,101097.69
2023-02-21T06:37:15.777Z,101100.59
2023-02-21T06:41:24.644Z,101107.91
2023-02-21T06:45:27.959Z,101103.00
2023-02-21T06:49:31.120Z,101097.56
2023-02-21T06:53:34.238Z,101094.84
2023-02-21T06:57:38.799Z,101103.00
2023-02-21T07:01:42.041Z,101099.25
2023-02-21T07:05:45.779Z,101095.31
2023-02-21T07:09:49.177Z,101095.16
2023-02-21T07:13:56.924Z,101091.78
2023-02-21T07:18:00.223Z,101087.69
2023-02-21T07:22:03.282Z,101090.22
2023-02-21T07:26:06.790Z,101088.50
2023-02-21T07:30:13.770Z,101092.78
2023-02-21T07:34:17.102Z,101095.16
2023-02-21T07:38:24.327Z,101102.66
2023-02-21T07:42:27.857Z,101088.50
2023-02-21T07:46:32.651Z,101099.91
2023-02-21T07:50:35.853Z,101106.53
2023-02-21T07:54:38.856Z,101103.44
2023-02-21T07:58:41.941Z,101106.97
2023-02-21T08:02:49.885Z,101110.72
2023-02-21T08:06:53.008Z,101115.81
2023-02-21T08:10:56.158Z,101109.19
2023-02-21T08:14:59.396Z,101105.94
2023-02-21T08:19:05.664Z,101105.59
2023-02-21T08:23:08.746Z,101103.22
2023-02-21T08:27:11.953Z,101101.53
2023-02-21T08:31:15.435Z,101100.00
2023-02-21T08:35:21.490Z,101110.38
2023-02-21T08:39:25.925Z,101105.78
2023-02-21T08:43:30.094Z,101106.59
2023-02-21T08:47:36.322Z,101100.28
2023-02-21T08:51:41.268Z,101102.44
2023-02-21T08:55:45.029Z,101095.31
2023-02-21T08:59:48.179Z,101091.25
2023-02-21T09:03:51.553Z,101088.53
2023-02-21T09:07:59.208Z,101099.22
2023-02-21T09:12:03.502Z,101087.47
2023-02-21T09:16:07.229Z,101091.88
2023-02-21T09:20:13.096Z,101098.00
2023-02-21T09:24:17.624Z,101081.31
2023-02-21T09:28:21.481Z,101083.72
2023-02-21T09:32:24.991Z,101081.66
2023-02-21T09:36:28.482Z,101067.28
2023-02-21T09:40:41.508Z,101074.56
2023-02-21T09:44:46.026Z,101074.38
2023-02-21T09:48:50.042Z,101063.66
2023-02-21T09:52:53.282Z,101074.56
2023-02-21T09:56:58.635Z,101066.84
2023-02-21T10:01:07.801Z,101063.09
2023-02-21T10:05:40.498Z,101073.19
2023-02-21T10:09:50.807Z,101074.50
2023-02-21T10:14:04.109Z,101067.09
2023-02-21T10:18:19.469Z,101064.06
2023-02-21T10:22:26.846Z,101067.75
2023-02-21T10:26:32.190Z,101062.56
2023-02-21T10:30:40.974Z,101070.47
2023-02-21T10:34:48.367Z,101075.41
2023-02-21T10:38:58.056Z,101072.09
2023-02-21T10:43:09.348Z,101072.03
2023-02-21T10:47:20.439Z,101069.53
2023-02-21T10:51:32.560Z,101071.59
2023-02-21T10:55:36.188Z,101077.09
2023-02-21T10:59:43.082Z,101066.06
2023-02-21T11:03:51.065Z,101062.69
2023-02-21T11:08:00.858Z,101057.22
2023-02-21T11:12:07.637Z,101048.88
2023-02-21T11:16:15.781Z,101048.59
2023-02-21T11:20:23.641Z,101042.34
2023-02-21T11:24:26.763Z,101036.16
2023-02-21T11:28:30.371Z,101035.78
2023-02-21T11:32:36.517Z,101027.81
2023-02-21T11:36:43.038Z,101029.75
2023-02-21T11:40:50.345Z,101028.19
2023-02-21T11:45:18.563Z,101012.72
2023-02-21T11:49:29.743Z,101005.97
2023-02-21T11:53:40.215Z,101021.50
2023-02-21T11:57:53.187Z,101006.28
2023-02-21T12:02:09.112Z,100992.19
2023-02-21T12:06:19.123Z,100995.84
2023-02-21T12:10:43.940Z,100975.41
2023-02-21T12:15:02.355Z,100966.31
2023-02-21T12:19:32.090Z,100967.31
2023-02-21T12:23:48.713Z,100954.91
2023-02-21T12:27:57.958Z,100950.28
2023-02-21T12:32:31.358Z,100943.06
2023-02-21T12:36:48.385Z,100940.88
2023-02-21T12:41:02.166Z,100943.91
2023-02-21T12:45:23.449Z,100933.88
2023-02-21T12:49:30.514Z,100940.31
2023-02-21T12:53:38.210Z,100939.47
2023-02-21T12:57:52.847Z,100940.16
2023-02-21T13:02:03.174Z,100937.13
2023-02-21T13:06:11.232Z,100936.56
2023-02-21T13:10:19.250Z,100936.50
2023-02-21T13:14:28.361Z,100925.47
2023-02-21T13:18:38.279Z,100927.56
2023-02-21T13:23:18.399Z,100926.91
2023-02-21T13:27:48.239Z,100908.34
2023-02-21T13:32:00.362Z,100914.56
2023-02-21T13:36:22.847Z,100910.59
2023-02-21T13:40:33.391Z,100898.22
2023-02-21T13:44:41.329Z,100889.06
2023-02-21T13:48:45.925Z,100880.97
2023-02-21T13:53:03.484Z,100869.13
2023-02-21T13:57:31.318Z,100845.75
2023-02-21T14:01:53.102Z,100843.63
2023-02-21T14:06:35.704Z,100854.44
2023-02-21T14:10:45.011Z,100848.13
2023-02-21T14:14:52.661Z,100844.50
2023-02-21T14:18:58.961Z,100839.00
2023-02-21T14:23:02.625Z,100829.66
2023-02-21T14:27:38.094Z,100825.09
2023-02-21T14:31:53.448Z,100819.94
2023-02-21T14:36:05.333Z,100827.28
2023-02-21T14:40:23.684Z,100821.72
2023-02-21T14:44:35.172Z,100807.31
2023-02-21T14:49:06.716Z,100811.66
2023-02-21T14:53:56.344Z,100796.72
2023-02-21T14:58:20.816Z,100796.41
2023-02-21T15:02:35.220Z,100799.56
2023-02-21T15:06:43.052Z,100806.88
2023-02-21T15:10:50.488Z,100812.75
2023-02-21T15:14:54.923Z,100811.25
2023-02-21T15:19:02.138Z,100809.16
2023-02-21T15:23:14.175Z,100791.25
2023-02-21T15:27:17.805Z,100801.84
2023-02-21T15:31:22.197Z,100805.56
2023-02-21T15:35:31.008Z,100814.88
2023-02-21T15:39:36.543Z,100812.97
2023-02-21T15:43:47.468Z,100814.81
2023-02-21T15:47:52.055Z,100809.81
2023-02-21T15:51:56.917Z,100811.03
2023-02-21T15:56:19.907Z,100821.81
2023-02-21T16:00:27.673Z,100823.25
2023-02-21T16:04:37.038Z,100822.09
2023-02-21T16:08:53.152Z,100819.72
2023-02-21T16:13:00.294Z,100810.06
2023-02-21T16:17:11.252Z,100803.34
2023-02-21T16:21:24.512Z,100803.34
2023-02-21T16:25:33.866Z,100797.28
2023-02-21T16:29:37.031Z,100804.59
2023-02-21T16:33:40.308Z,100801.16
2023-02-21T16:37:43.802Z,100800.78
2023-02-21T16:41:48.294Z,100796.63
2023-02-21T16:45:53.441Z,100795.06
2023-02-21T16:49:56.599Z,100789.78
2023-02-21T16:54:00.104Z,100796.97
2023-02-21T16:58:08.290Z,100801.38
2023-02-21T17:02:15.068Z,100803.63
2023-02-21T17:06:22.129Z,100808.78
2023-02-21T17:10:25.524Z,100809.47
2023-02-21T17:14:30.078Z,100813.72
2023-02-21T17:18:33.282Z,100809.31
2023-02-21T17:22:36.615Z,100816.81
2023-02-21T17:26:40.598Z,100824.03
2023-02-21T17:30:45.750Z,100817.94
2023-02-21T17:34:49.036Z,100818.69
2023-02-21T17:38:52.422Z,100816.72
2023-02-21T17:42:56.949Z,100811.75
2023-02-21T17:47:01.991Z,100806.97
2023-02-21T17:51:05.918Z,100808.97
2023-02-21T17:55:11.238Z,100804.56
2023-02-21T17:59:14.811Z,100806.22
2023-02-21T18:03:19.616Z,100803.41
2023-02-21T18:07:22.813Z,100800.59
2023-02-21T18:11:26.562Z,100804.53
2023-02-21T18:15:29.947Z,100800.97
2023-02-21T18:19:34.587Z,100797.88
2023-02-21T18:23:38.505Z,100799.56
2023-02-21T18:27:41.745Z,100800.13
2023-02-21T18:31:45.135Z,100803.69
2023-02-21T18:35:49.763Z,100798.44
2023-02-21T18:39:53.898Z,100797.09
2023-02-21T18:43:57.035Z,100807.81
2023-02-21T18:48:01.915Z,100808.19
2023-02-21T18:52:07.453Z,100811.94
2023-02-21T18:56:12.544Z,100802.25
2023-02-21T19:00:19.244Z,100803.13
2023-02-21T19:04:23.116Z,100796.81
2023-02-21T19:08:28.380Z,100802.75
2023-02-21T19:12:31.471Z,100793.19
2023-02-21T19:16:34.813Z,100786.78
2023-02-21T19:20:40.226Z,100793.56
2023-02-21T19:24:44.904Z,100791.84
2023-02-21T19:28:48.373Z,100791.50
2023-02-21T19:32:51.660Z,100786.03
2023-02-21T19:36:55.173Z,100791.28
2023-02-21T19:41:00.250Z,100787.63
2023-02-21T19:45:03.727Z,100785.25
2023-02-21T19:49:17.576Z,100780.28
2023-02-21T19:53:20.991Z,100779.06
2023-02-21T19:57:25.488Z,100774.75
2023-02-21T20:01:30.230Z,100778.88
2023-02-21T20:05:33.473Z,100775.47
2023-02-21T20:09:36.607Z,100774.75
2023-02-21T20:13:42.415Z,100781.41
2023-02-21T20:17:46.561Z,100780.28
2023-02-21T20:21:51.994Z,100779.59
2023-02-21T20:25:55.517Z,100774.53
2023-02-21T20:30:00.461Z,100765.34
2023-02-21T20:34:04.386Z,100759.31
2023-02-21T20:38:09.480Z,100767.19
2023-02-21T20:42:12.812Z,100772.44
2023-02-21T20:46:23.045Z,100773.00
2023-02-21T20:50:26.653Z,100762.47
2023-02-21T20:54:29.832Z,100753.28
2023-02-21T20:58:33.224Z,100759.09
2023-02-21T21:02:38.979Z,100751.97
2023-02-21T21:06:42.285Z,100755.72
2023-02-21T21:10:48.613Z,100744.06
2023-02-21T21:14:54.161Z,100741.84
2023-02-21T21:18:59.239Z,100746.78
2023-02-21T21:23:02.356Z,100750.75
2023-02-21T21:27:10.186Z,100733.41
2023-02-21T21:31:14.472Z,100735.75
2023-02-21T21:35:20.415Z,100732.38
2023-02-21T21:39:24.290Z,100726.19
2023-02-21T21:43:28.448Z,100730.56
2023-02-21T21:47:33.788Z,100727.47
2023-02-21T21:51:38.262Z,100721.00
2023-02-21T21:55:41.843Z,100719.91
2023-02-21T21:59:45.909Z,100705.63
2023-02-21T22:03:49.012Z,100705.63
2023-02-21T22:07:54.186Z,100697.97
2023-02-21T22:11:57.397Z,100691.13
2023-02-21T22:16:01.610Z,100676.75
2023-02-21T22:20:17.099Z,100670.19
2023-02-21T22:24:23.484Z,100668.50
2023-02-21T22:28:26.552Z,100670.84
2023-02-21T22:32:29.682Z,100660.16
2023-02-21T22:36:33.963Z,100667.94
2023-02-21T22:40:38.731Z,100657.81
2023-02-21T22:44:43.521Z,100651.22
2023-02-21T22:48:47.524Z,100648.50
2023-02-21T22:52:52.011Z,100642.41
2023-02-21T22:57:01.671Z,100637.44
2023-02-21T23:01:09.211Z,100633.22
2023-02-21T23:05:14.795Z,100626.09
2023-02-21T23:09:18.697Z,100622.63
2023-02-21T23:13:25.826Z,100616.44
2023-02-21T23:17:29.258Z,100607.91
2023-02-21T23:21:32.306Z,100604.53
2023-02-21T23:25:36.436Z,100603.22
2023-02-21T23:29:40.843Z,100604.03
2023-02-21T23:33:44.290Z,100598.44
2023-02-21T23:37:49.201Z,100597.13
2023-02-21T23:41:53.680Z,100598.81
2023-02-21T23:46:00.284Z,100599.47
2023-02-21T23:50:03.722Z,100596.16
2023-02-21T23:54:08.058Z,100595.72
2023-02-21T23:58:14.182Z,100592.63
